Time;durP1;ratioP1;P1;durP2;ratioP2;P2;SDS_P1;SDS_P2;PMS_P1;PMS_P2;Temp;Humidity;BMP_temperature;BMP_pressure;BME280_temperature;BME280_humidity;BME280_pressure;Samples;Min_cycle;Max_cycle;Signal;HPM_P1;HPM_P2
2022/12/16 00:01:02;;;;;;;;;;;0.70;99.90;;;;;;5029935;28;19925;-66
2022/12/16 00:03:27;;;;;;;;;;;0.50;99.90;;;;;;5029748;28;19937;-67
2022/12/16 00:05:53;;;;;;;;;;;0.40;99.90;;;;;;5012160;28;19937;-66
2022/12/16 00:08:19;;;;;;;;;;;0.70;99.90;;;;;;5029927;28;19925;-67
2022/12/16 00:10:54;;;;;;;;;;;0.40;99.90;;;;;;5045032;28;20354;-67
2022/12/16 00:13:19;;;;;;;;;;;0.30;99.90;;;;;;5045585;28;19929;-67
2022/12/16 00:15:48;;;;;;;;;;;0.30;99.90;;;;;;5029308;28;19921;-66
2022/12/16 00:18:13;;;;;;;;;;;0.50;99.90;;;;;;5029516;28;19936;-66
2022/12/16 00:20:46;;;;;;;;;;;0.30;99.90;;;;;;5029242;28;19925;-67
2022/12/16 00:23:12;;;;;;;;;;;0.30;99.90;;;;;;5029536;28;19977;-65
2022/12/16 00:25:37;;;;;;;;;;;0.30;99.90;;;;;;5029206;28;19925;-65
2022/12/16 00:28:03;;;;;;;;;;;0.30;99.90;;;;;;5011971;28;19929;-66
2022/12/16 00:30:28;;;;;;;;;;;0.40;99.90;;;;;;5061558;28;20282;-66
2022/12/16 00:32:54;;;;;;;;;;;0.40;99.90;;;;;;5028567;28;19983;-66
2022/12/16 00:35:19;;;;;;;;;;;0.40;99.90;;;;;;5028392;28;20020;-66
2022/12/16 00:37:48;;;;;;;;;;;0.50;99.90;;;;;;5044696;28;19933;-66
2022/12/16 00:40:14;;;;;;;;;;;0.30;99.90;;;;;;5044849;28;20005;-66
2022/12/16 00:42:39;;;;;;;;;;;1.00;99.90;;;;;;5044635;28;19933;-66
2022/12/16 00:45:05;;;;;;;;;;;0.30;99.90;;;;;;5045084;28;20404;-66
2022/12/16 00:47:30;;;;;;;;;;;0.40;99.90;;;;;;5028427;28;20012;-66
2022/12/16 00:49:56;;;;;;;;;;;0.40;99.90;;;;;;5029321;28;19998;-66
2022/12/16 00:52:21;;;;;;;;;;;0.50;99.90;;;;;;5029122;28;19933;-67
2022/12/16 00:54:47;;;;;;;;;;;0.50;99.90;;;;;;5028878;28;20382;-67
2022/12/16 00:57:13;;;;;;;;;;;0.50;99.90;;;;;;5044330;28;19978;-67
2022/12/16 00:59:38;;;;;;;;;;;0.60;99.90;;;;;;5011142;28;19930;-67
2022/12/16 01:02:04;;;;;;;;;;;0.70;99.90;;;;;;5029140;28;19932;-67
2022/12/16 01:04:29;;;;;;;;;;;0.70;99.90;;;;;;5028558;28;19976;-67
2022/12/16 01:06:55;;;;;;;;;;;0.70;99.90;;;;;;5028662;28;19932;-66
2022/12/16 01:09:20;;;;;;;;;;;0.80;99.90;;;;;;5061098;28;20073;-68
2022/12/16 01:11:46;;;;;;;;;;;0.80;99.90;;;;;;5027547;28;19974;-67
2022/12/16 01:14:12;;;;;;;;;;;0.90;99.90;;;;;;5028783;28;20332;-66
2022/12/16 01:16:37;;;;;;;;;;;1.00;99.90;;;;;;5028756;28;19925;-66
2022/12/16 01:19:03;;;;;;;;;;;1.00;99.90;;;;;;5028806;28;20020;-67
2022/12/16 01:21:28;;;;;;;;;;;1.40;99.90;;;;;;5028363;28;19960;-64
2022/12/16 01:23:54;;;;;;;;;;;1.70;99.90;;;;;;5043514;28;19921;-64
2022/12/16 01:26:20;;;;;;;;;;;1.10;99.90;;;;;;5043980;28;19925;-64
2022/12/16 01:28:48;;;;;;;;;;;1.10;99.90;;;;;;5027903;28;19947;-64
2022/12/16 01:31:16;;;;;;;;;;;1.20;99.90;;;;;;5044353;28;19925;-64
2022/12/16 01:33:41;;;;;;;;;;;1.20;99.90;;;;;;5043249;28;20382;-65
2022/12/16 01:36:08;;;;;;;;;;;1.30;99.90;;;;;;5028710;28;19940;-65
2022/12/16 01:38:34;;;;;;;;;;;1.20;99.90;;;;;;5044219;28;20008;-65
2022/12/16 01:41:00;;;;;;;;;;;1.20;99.90;;;;;;5010817;28;20003;-64
2022/12/16 01:43:27;;;;;;;;;;;1.20;99.90;;;;;;5010895;28;20031;-64
2022/12/16 01:46:05;;;;;;;;;;;1.30;99.90;;;;;;5028134;28;20134;-64
2022/12/16 01:48:33;;;;;;;;;;;1.30;99.90;;;;;;5028629;28;20063;-64
2022/12/16 01:51:05;;;;;;;;;;;1.40;99.90;;;;;;5028279;28;19948;-65
2022/12/16 01:53:31;;;;;;;;;;;1.40;99.90;;;;;;5028447;28;20278;-65
2022/12/16 01:55:57;;;;;;;;;;;1.30;99.90;;;;;;5043587;28;20016;-64
2022/12/16 01:58:25;;;;;;;;;;;1.50;99.90;;;;;;5043723;28;19979;-65
2022/12/16 02:00:51;;;;;;;;;;;1.50;99.90;;;;;;5028020;28;19983;-64
2022/12/16 02:03:17;;;;;;;;;;;1.50;99.90;;;;;;5043853;28;19976;-64
2022/12/16 02:05:43;;;;;;;;;;;1.50;99.90;;;;;;5027781;28;19974;-65
2022/12/16 02:08:09;;;;;;;;;;;1.50;99.90;;;;;;5028358;28;20271;-64
2022/12/16 02:10:43;;;;;;;;;;;1.50;99.90;;;;;;5031431;28;19932;-67
2022/12/16 02:13:29;;;;;;;;;;;1.50;99.90;;;;;;5031765;28;19926;-63
2022/12/16 02:16:04;;;;;;;;;;;1.50;99.90;;;;;;5061654;28;19925;-63
2022/12/16 02:18:44;;;;;;;;;;;1.50;99.90;;;;;;5031651;28;19925;-64
2022/12/16 02:21:18;;;;;;;;;;;1.50;99.90;;;;;;5031292;28;20378;-64
2022/12/16 02:24:03;;;;;;;;;;;1.50;99.90;;;;;;5030865;28;20370;-64
2022/12/16 02:26:34;;;;;;;;;;;1.40;99.90;;;;;;5031262;28;19925;-64
2022/12/16 02:29:18;;;;;;;;;;;1.40;99.90;;;;;;5031011;28;19925;-63
2022/12/16 02:31:46;;;;;;;;;;;1.40;99.90;;;;;;5031272;28;20382;-65
2022/12/16 02:34:12;;;;;;;;;;;1.30;99.90;;;;;;5031496;28;20423;-63
2022/12/16 02:36:40;;;;;;;;;;;1.30;99.90;;;;;;5031184;28;20024;-64
2022/12/16 02:39:06;;;;;;;;;;;1.30;99.90;;;;;;5046558;28;20001;-64
2022/12/16 02:41:42;;;;;;;;;;;1.30;99.90;;;;;;5031154;28;20294;-64
2022/12/16 02:44:09;;;;;;;;;;;1.30;99.90;;;;;;5030830;28;19925;-63
2022/12/16 02:46:39;;;;;;;;;;;1.30;99.90;;;;;;5013296;28;19925;-64
2022/12/16 02:49:06;;;;;;;;;;;1.30;99.90;;;;;;5030759;28;19925;-64
2022/12/16 02:51:32;;;;;;;;;;;1.30;99.90;;;;;;5046450;28;19925;-63
2022/12/16 02:53:57;;;;;;;;;;;1.30;99.90;;;;;;5030544;28;19968;-64
2022/12/16 02:56:29;;;;;;;;;;;1.30;99.90;;;;;;5046647;28;19940;-64
2022/12/16 02:58:55;;;;;;;;;;;1.30;99.90;;;;;;5030594;28;19972;-64
2022/12/16 03:01:23;;;;;;;;;;;1.30;99.90;;;;;;5030848;28;19925;-64
2022/12/16 03:03:53;;;;;;;;;;;1.30;99.90;;;;;;5030674;28;19973;-65
2022/12/16 03:06:20;;;;;;;;;;;1.30;99.90;;;;;;5013044;28;20435;-64
2022/12/16 03:08:50;;;;;;;;;;;1.30;99.90;;;;;;5030817;28;20055;-64
2022/12/16 03:11:16;;;;;;;;;;;1.40;99.90;;;;;;5030729;28;19970;-63
2022/12/16 03:13:43;;;;;;;;;;;1.40;99.90;;;;;;5030478;28;20332;-64
2022/12/16 03:16:10;;;;;;;;;;;1.40;99.90;;;;;;5029689;28;20039;-64
2022/12/16 03:18:37;;;;;;;;;;;1.40;99.90;;;;;;5029055;28;19925;-63
2022/12/16 03:21:05;;;;;;;;;;;1.40;99.90;;;;;;5012332;28;20401;-63
2022/12/16 03:23:34;;;;;;;;;;;1.40;99.90;;;;;;5030283;28;19932;-63
2022/12/16 03:26:06;;;;;;;;;;;1.50;99.90;;;;;;5030154;28;20282;-63
2022/12/16 03:28:37;;;;;;;;;;;1.50;99.90;;;;;;5030013;28;19939;-63
2022/12/16 03:31:11;;;;;;;;;;;1.50;99.90;;;;;;5030177;28;19938;-64
2022/12/16 03:33:40;;;;;;;;;;;1.50;99.90;;;;;;5030341;28;19925;-64
2022/12/16 03:36:09;;;;;;;;;;;1.60;99.90;;;;;;5045574;28;19925;-64
2022/12/16 03:38:35;;;;;;;;;;;1.60;99.90;;;;;;5012933;28;19925;-64
2022/12/16 03:41:02;;;;;;;;;;;1.60;99.90;;;;;;5030140;28;20350;-64
2022/12/16 03:43:27;;;;;;;;;;;1.60;99.90;;;;;;5030142;28;20450;-64
2022/12/16 03:45:56;;;;;;;;;;;1.70;99.90;;;;;;5030285;28;19928;-64
2022/12/16 03:48:23;;;;;;;;;;;1.60;99.90;;;;;;5045383;28;19948;-63
2022/12/16 03:50:49;;;;;;;;;;;1.60;99.90;;;;;;5030130;28;19994;-64
2022/12/16 03:53:14;;;;;;;;;;;1.50;99.90;;;;;;5029792;28;20396;-64
2022/12/16 03:55:40;;;;;;;;;;;1.50;99.90;;;;;;5030395;28;19975;-64
2022/12/16 03:58:06;;;;;;;;;;;1.70;99.90;;;;;;5044926;28;19925;-65
2022/12/16 04:00:31;;;;;;;;;;;1.50;99.90;;;;;;5030240;28;20326;-65
2022/12/16 04:02:57;;;;;;;;;;;1.50;99.90;;;;;;5029909;28;19968;-66
2022/12/16 04:05:23;;;;;;;;;;;1.40;99.90;;;;;;5029816;28;20394;-66
2022/12/16 04:07:49;;;;;;;;;;;1.40;99.90;;;;;;5029773;28;19925;-64
2022/12/16 04:10:14;;;;;;;;;;;1.60;99.90;;;;;;5029443;28;19925;-64
2022/12/16 04:26:30;;;;;;;;;;;1.10;99.90;;;;;;5029709;28;19932;-64
2022/12/16 04:28:56;;;;;;;;;;;1.10;99.90;;;;;;5029583;28;19925;-64
2022/12/16 04:31:21;;;;;;;;;;;1.60;99.90;;;;;;5043537;28;19932;-64
